sensor_id;sensor_type;location;lat;lon;timestamp;temperature;humidity
50969;DHT22;36982;51.474;7.228;2023-04-06T00:01:40;3.70;99.90
50969;DHT22;36982;51.474;7.228;2023-04-06T00:04:06;3.60;99.90
50969;DHT22;36982;51.474;7.228;2023-04-06T00:06:32;3.50;99.90
50969;DHT22;36982;51.474;7.228;2023-04-06T00:08:59;3.50;99.90
50969;DHT22;36982;51.474;7.228;2023-04-06T00:11:25;3.70;99.90
50969;DHT22;36982;51.474;7.228;2023-04-06T00:13:51;3.80;99.90
50969;DHT22;36982;51.474;7.228;2023-04-06T00:16:16;3.70;99.90
50969;DHT22;36982;51.474;7.228;2023-04-06T00:18:42;3.70;99.90
50969;DHT22;36982;51.474;7.228;2023-04-06T00:21:10;3.60;99.90
50969;DHT22;36982;51.474;7.228;2023-04-06T00:23:36;3.70;99.90
50969;DHT22;36982;51.474;7.228;2023-04-06T00:26:02;3.60;99.90
50969;DHT22;36982;51.474;7.228;2023-04-06T00:28:27;3.50;99.90
50969;DHT22;36982;51.474;7.228;2023-04-06T00:30:55;3.40;99.90
50969;DHT22;36982;51.474;7.228;2023-04-06T00:33:21;3.40;99.90
50969;DHT22;36982;51.474;7.228;2023-04-06T00:35:47;3.40;99.90
50969;DHT22;36982;51.474;7.228;2023-04-06T00:38:14;3.30;99.90
50969;DHT22;36982;51.474;7.228;2023-04-06T00:40:40;3.30;99.90
50969;DHT22;36982;51.474;7.228;2023-04-06T00:43:06;3.30;99.90
50969;DHT22;36982;51.474;7.228;2023-04-06T00:45:32;3.30;99.90
50969;DHT22;36982;51.474;7.228;2023-04-06T00:47:58;3.20;99.90
50969;DHT22;36982;51.474;7.228;2023-04-06T00:50:24;3.10;99.90
50969;DHT22;36982;51.474;7.228;2023-04-06T00:52:50;3.10;99.90
50969;DHT22;36982;51.474;7.228;2023-04-06T00:55:17;3.10;99.90
50969;DHT22;36982;51.474;7.228;2023-04-06T00:57:42;3.00;99.90
50969;DHT22;36982;51.474;7.228;2023-04-06T01:00:08;2.90;99.90
50969;DHT22;36982;51.474;7.228;2023-04-06T01:02:35;3.10;99.90
50969;DHT22;36982;51.474;7.228;2023-04-06T01:05:01;3.10;99.90
50969;DHT22;36982;51.474;7.228;2023-04-06T01:07:27;3.10;99.90
50969;DHT22;36982;51.474;7.228;2023-04-06T01:09:55;3.10;99.90
50969;DHT22;36982;51.474;7.228;2023-04-06T01:12:21;3.00;99.90
50969;DHT22;36982;51.474;7.228;2023-04-06T01:14:47;3.10;99.90
50969;DHT22;36982;51.474;7.228;2023-04-06T01:17:12;3.00;99.90
50969;DHT22;36982;51.474;7.228;2023-04-06T01:19:38;2.90;99.90
50969;DHT22;36982;51.474;7.228;2023-04-06T01:22:06;3.00;99.90
50969;DHT22;36982;51.474;7.228;2023-04-06T01:24:32;3.00;99.90
50969;DHT22;36982;51.474;7.228;2023-04-06T01:26:58;3.00;99.90
50969;DHT22;36982;51.474;7.228;2023-04-06T01:29:24;3.10;99.90
50969;DHT22;36982;51.474;7.228;2023-04-06T01:31:50;3.00;99.90
50969;DHT22;36982;51.474;7.228;2023-04-06T01:34:15;3.00;99.90
50969;DHT22;36982;51.474;7.228;2023-04-06T01:36:41;3.00;99.90
50969;DHT22;36982;51.474;7.228;2023-04-06T01:39:10;3.00;99.90
50969;DHT22;36982;51.474;7.228;2023-04-06T01:41:36;3.10;99.90
50969;DHT22;36982;51.474;7.228;2023-04-06T01:44:02;3.10;99.90
50969;DHT22;36982;51.474;7.228;2023-04-06T01:46:28;3.00;99.90
50969;DHT22;36982;51.474;7.228;2023-04-06T01:48:53;3.10;99.90
50969;DHT22;36982;51.474;7.228;2023-04-06T01:51:19;3.10;96.10
50969;DHT22;36982;51.474;7.228;2023-04-06T01:53:44;3.10;91.70
50969;DHT22;36982;51.474;7.228;2023-04-06T01:56:10;3.10;87.40
50969;DHT22;36982;51.474;7.228;2023-04-06T01:58:36;3.10;96.80
50969;DHT22;36982;51.474;7.228;2023-04-06T02:01:02;3.10;80.00
50969;DHT22;36982;51.474;7.228;2023-04-06T02:03:27;3.10;27.40
50969;DHT22;36982;51.474;7.228;2023-04-06T02:05:53;3.10;67.40
50969;DHT22;36982;51.474;7.228;2023-04-06T02:08:18;3.10;35.00
50969;DHT22;36982;51.474;7.228;2023-04-06T02:10:44;3.10;7.00
50969;DHT22;36982;51.474;7.228;2023-04-06T02:13:10;3.10;23.50
50969;DHT22;36982;51.474;7.228;2023-04-06T02:15:35;3.20;26.40
50969;DHT22;36982;51.474;7.228;2023-04-06T02:18:01;3.10;48.30
50969;DHT22;36982;51.474;7.228;2023-04-06T02:20:27;3.00;97.00
50969;DHT22;36982;51.474;7.228;2023-04-06T02:22:52;3.10;67.60
50969;DHT22;36982;51.474;7.228;2023-04-06T02:25:18;3.20;33.60
50969;DHT22;36982;51.474;7.228;2023-04-06T02:27:43;3.10;26.10
50969;DHT22;36982;51.474;7.228;2023-04-06T02:30:10;3.10;1.00
50969;DHT22;36982;51.474;7.228;2023-04-06T02:32:35;3.10;1.00
50969;DHT22;36982;51.474;7.228;2023-04-06T02:35:01;3.10;1.00
50969;DHT22;36982;51.474;7.228;2023-04-06T02:37:27;3.20;1.00
50969;DHT22;36982;51.474;7.228;2023-04-06T02:39:52;3.10;1.00
50969;DHT22;36982;51.474;7.228;2023-04-06T02:42:18;3.20;1.00
50969;DHT22;36982;51.474;7.228;2023-04-06T02:44:44;3.20;1.00
50969;DHT22;36982;51.474;7.228;2023-04-06T02:47:09;3.20;1.00
50969;DHT22;36982;51.474;7.228;2023-04-06T02:49:36;3.20;1.00
50969;DHT22;36982;51.474;7.228;2023-04-06T02:52:02;3.20;1.00
50969;DHT22;36982;51.474;7.228;2023-04-06T02:54:27;3.20;1.00
50969;DHT22;36982;51.474;7.228;2023-04-06T02:56:53;3.30;99.90
50969;DHT22;36982;51.474;7.228;2023-04-06T02:59:19;3.30;99.90
50969;DHT22;36982;51.474;7.228;2023-04-06T03:01:44;3.30;99.90
50969;DHT22;36982;51.474;7.228;2023-04-06T03:04:10;3.30;99.90
50969;DHT22;36982;51.474;7.228;2023-04-06T03:06:36;3.20;99.90
50969;DHT22;36982;51.474;7.228;2023-04-06T03:09:02;3.40;99.90
50969;DHT22;36982;51.474;7.228;2023-04-06T03:11:28;3.40;99.90
50969;DHT22;36982;51.474;7.228;2023-04-06T03:13:53;3.30;99.90
50969;DHT22;36982;51.474;7.228;2023-04-06T03:16:19;3.40;99.90
50969;DHT22;36982;51.474;7.228;2023-04-06T03:18:44;3.40;99.90
50969;DHT22;36982;51.474;7.228;2023-04-06T03:21:12;3.40;99.90
50969;DHT22;36982;51.474;7.228;2023-04-06T03:23:38;3.40;99.90
50969;DHT22;36982;51.474;7.228;2023-04-06T03:26:04;3.30;99.90
50969;DHT22;36982;51.474;7.228;2023-04-06T03:28:29;3.30;99.90
50969;DHT22;36982;51.474;7.228;2023-04-06T03:30:55;3.20;99.90
50969;DHT22;36982;51.474;7.228;2023-04-06T03:33:21;3.40;99.90
50969;DHT22;36982;51.474;7.228;2023-04-06T03:35:46;3.40;99.90
50969;DHT22;36982;51.474;7.228;2023-04-06T03:38:12;3.30;99.90
50969;DHT22;36982;51.474;7.228;2023-04-06T03:40:38;3.20;99.90
50969;DHT22;36982;51.474;7.228;2023-04-06T03:43:04;3.20;99.90
50969;DHT22;36982;51.474;7.228;2023-04-06T03:45:29;3.20;99.90
50969;DHT22;36982;51.474;7.228;2023-04-06T03:47:55;3.20;99.90
50969;DHT22;36982;51.474;7.228;2023-04-06T03:50:21;3.20;1.00
50969;DHT22;36982;51.474;7.228;2023-04-06T03:52:47;3.10;1.00
50969;DHT22;36982;51.474;7.228;2023-04-06T03:55:12;3.10;1.00
50969;DHT22;36982;51.474;7.228;2023-04-06T03:57:38;3.10;1.00
50969;DHT22;36982;51.474;7.228;2023-04-06T04:00:04;3.10;1.00
50969;DHT22;36982;51.474;7.228;2023-04-06T04:02:30;3.10;1.00
50969;DHT22;36982;51.474;7.228;2023-04-06T04:04:55;3.10;1.00
50969;DHT22;36982;51.474;7.228;2023-04-06T04:07:21;3.10;1.00
50969;DHT22;36982;51.474;7.228;2023-04-06T04:09:47;3.10;1.00
50969;DHT22;36982;51.474;7.228;2023-04-06T04:12:12;3.00;1.00
50969;DHT22;36982;51.474;7.228;2023-04-06T04:14:40;3.00;20.50
50969;DHT22;36982;51.474;7.228;2023-04-06T04:17:05;2.90;11.20
50969;DHT22;36982;51.474;7.228;2023-04-06T04:19:31;3.00;1.00
50969;DHT22;36982;51.474;7.228;2023-04-06T04:21:56;2.90;3.30
50969;DHT22;36982;51.474;7.228;2023-04-06T04:24:22;2.80;9.90
50969;DHT22;36982;51.474;7.228;2023-04-06T04:26:48;2.90;1.00
50969;DHT22;36982;51.474;7.228;2023-04-06T04:29:13;2.90;21.10
50969;DHT22;36982;51.474;7.228;2023-04-06T04:31:39;2.90;31.40
50969;DHT22;36982;51.474;7.228;2023-04-06T04:34:04;2.90;15.20
50969;DHT22;36982;51.474;7.228;2023-04-06T04:36:32;3.00;11.50
50969;DHT22;36982;51.474;7.228;2023-04-06T04:38:57;2.80;10.20
50969;DHT22;36982;51.474;7.228;2023-04-06T04:41:23;2.80;5.40
50969;DHT22;36982;51.474;7.228;2023-04-06T04:43:49;3.00;1.00
50969;DHT22;36982;51.474;7.228;2023-04-06T04:46:14;2.90;1.00
50969;DHT22;36982;51.474;7.228;2023-04-06T04:48:40;2.80;1.00
50969;DHT22;36982;51.474;7.228;2023-04-06T04:51:06;2.80;1.00
50969;DHT22;36982;51.474;7.228;2023-04-06T04:53:32;2.80;1.00
50969;DHT22;36982;51.474;7.228;2023-04-06T04:55:57;2.70;1.00
50969;DHT22;36982;51.474;7.228;2023-04-06T04:58:23;2.70;1.00
50969;DHT22;36982;51.474;7.228;2023-04-06T05:00:48;2.70;1.00
50969;DHT22;36982;51.474;7.228;2023-04-06T05:03:19;2.90;1.00
50969;DHT22;36982;51.474;7.228;2023-04-06T05:05:46;2.90;1.00
50969;DHT22;36982;51.474;7.228;2023-04-06T05:08:12;2.80;1.00
50969;DHT22;36982;51.474;7.228;2023-04-06T05:10:37;2.80;1.00
50969;DHT22;36982;51.474;7.228;2023-04-06T05:13:03;2.90;1.00
50969;DHT22;36982;51.474;7.228;2023-04-06T05:15:29;2.90;99.90
50969;DHT22;36982;51.474;7.228;2023-04-06T05:17:54;3.00;99.90
50969;DHT22;36982;51.474;7.228;2023-04-06T05:20:20;3.00;99.90
50969;DHT22;36982;51.474;7.228;2023-04-06T05:22:46;3.00;99.90
50969;DHT22;36982;51.474;7.228;2023-04-06T05:25:13;3.00;99.90
50969;DHT22;36982;51.474;7.228;2023-04-06T05:27:38;3.10;99.90
50969;DHT22;36982;51.474;7.228;2023-04-06T05:30:05;3.00;99.90
50969;DHT22;36982;51.474;7.228;2023-04-06T05:32:31;3.10;99.90
50969;DHT22;36982;51.474;7.228;2023-04-06T05:34:57;3.10;99.90
50969;DHT22;36982;51.474;7.228;2023-04-06T05:37:23;3.20;99.90
50969;DHT22;36982;51.474;7.228;2023-04-06T05:39:48;3.30;99.90
50969;DHT22;36982;51.474;7.228;2023-04-06T05:42:14;3.40;99.90
50969;DHT22;36982;51.474;7.228;2023-04-06T05:44:40;3.40;90.20
50969;DHT22;36982;51.474;7.228;2023-04-06T05:47:06;3.50;47.90
50969;DHT22;36982;51.474;7.228;2023-04-06T05:49:31;3.50;48.70
50969;DHT22;36982;51.474;7.228;2023-04-06T05:51:57;3.50;25.90
50969;DHT22;36982;51.474;7.228;2023-04-06T05:54:23;3.60;1.00
50969;DHT22;36982;51.474;7.228;2023-04-06T05:56:48;3.80;34.70
50969;DHT22;36982;51.474;7.228;2023-04-06T05:59:14;4.20;1.00
50969;DHT22;36982;51.474;7.228;2023-04-06T06:01:41;4.20;99.90
50969;DHT22;36982;51.474;7.228;2023-04-06T06:04:06;4.40;99.90
50969;DHT22;36982;51.474;7.228;2023-04-06T06:06:32;4.40;50.50
50969;DHT22;36982;51.474;7.228;2023-04-06T06:08:58;4.50;1.00
50969;DHT22;36982;51.474;7.228;2023-04-06T06:11:27;4.50;99.90
50969;DHT22;36982;51.474;7.228;2023-04-06T06:13:52;4.50;99.90
50969;DHT22;36982;51.474;7.228;2023-04-06T06:16:19;4.50;99.90
50969;DHT22;36982;51.474;7.228;2023-04-06T06:18:45;4.50;99.90
50969;DHT22;36982;51.474;7.228;2023-04-06T06:21:10;4.60;99.90
50969;DHT22;36982;51.474;7.228;2023-04-06T06:23:39;4.60;99.90
50969;DHT22;36982;51.474;7.228;2023-04-06T06:26:05;4.60;90.50
50969;DHT22;36982;51.474;7.228;2023-04-06T06:28:31;4.80;3.90
50969;DHT22;36982;51.474;7.228;2023-04-06T06:30:56;4.90;1.00
50969;DHT22;36982;51.474;7.228;2023-04-06T06:33:24;4.80;1.00
50969;DHT22;36982;51.474;7.228;2023-04-06T06:35:50;5.00;99.90
50969;DHT22;36982;51.474;7.228;2023-04-06T06:38:16;5.00;99.90
50969;DHT22;36982;51.474;7.228;2023-04-06T06:40:42;4.90;19.70
50969;DHT22;36982;51.474;7.228;2023-04-06T06:43:08;5.10;1.00
50969;DHT22;36982;51.474;7.228;2023-04-06T06:45:34;5.20;99.90
50969;DHT22;36982;51.474;7.228;2023-04-06T06:48:00;5.20;99.90
50969;DHT22;36982;51.474;7.228;2023-04-06T06:50:25;5.50;58.50
50969;DHT22;36982;51.474;7.228;2023-04-06T06:52:51;5.50;23.30
50969;DHT22;36982;51.474;7.228;2023-04-06T06:55:16;5.60;99.90
50969;DHT22;36982;51.474;7.228;2023-04-06T06:57:44;5.60;99.90
50969;DHT22;36982;51.474;7.228;2023-04-06T07:00:12;5.60;99.90
50969;DHT22;36982;51.474;7.228;2023-04-06T07:02:39;5.80;99.90
50969;DHT22;36982;51.474;7.228;2023-04-06T07:05:05;5.90;99.90
50969;DHT22;36982;51.474;7.228;2023-04-06T07:07:34;5.90;85.30
50969;DHT22;36982;51.474;7.228;2023-04-06T07:10:01;6.00;1.00
50969;DHT22;36982;51.474;7.228;2023-04-06T07:12:27;6.10;1.00
50969;DHT22;36982;51.474;7.228;2023-04-06T07:14:52;6.20;99.90
50969;DHT22;36982;51.474;7.228;2023-04-06T07:17:18;6.20;99.90
50969;DHT22;36982;51.474;7.228;2023-04-06T07:19:44;6.30;99.90
50969;DHT22;36982;51.474;7.228;2023-04-06T07:22:10;6.60;99.90
50969;DHT22;36982;51.474;7.228;2023-04-06T07:24:36;6.50;99.90
50969;DHT22;36982;51.474;7.228;2023-04-06T07:27:02;6.60;99.90
50969;DHT22;36982;51.474;7.228;2023-04-06T07:29:28;6.70;99.20
50969;DHT22;36982;51.474;7.228;2023-04-06T07:31:54;6.70;86.50
50969;DHT22;36982;51.474;7.228;2023-04-06T07:34:20;6.80;40.20
50969;DHT22;36982;51.474;7.228;2023-04-06T07:36:46;6.80;60.10
50969;DHT22;36982;51.474;7.228;2023-04-06T07:39:11;6.90;49.70
50969;DHT22;36982;51.474;7.228;2023-04-06T07:41:37;7.00;10.80
50969;DHT22;36982;51.474;7.228;2023-04-06T07:44:04;7.00;1.00
50969;DHT22;36982;51.474;7.228;2023-04-06T07:46:30;7.10;1.00
50969;DHT22;36982;51.474;7.228;2023-04-06T07:48:59;7.20;1.00
50969;DHT22;36982;51.474;7.228;2023-04-06T07:51:26;7.30;1.00
50969;DHT22;36982;51.474;7.228;2023-04-06T07:53:52;7.30;1.00
50969;DHT22;36982;51.474;7.228;2023-04-06T07:56:18;7.50;1.00
50969;DHT22;36982;51.474;7.228;2023-04-06T07:58:44;7.70;99.90
50969;DHT22;36982;51.474;7.228;2023-04-06T08:01:10;7.70;99.90
50969;DHT22;36982;51.474;7.228;2023-04-06T08:03:35;7.90;99.90
50969;DHT22;36982;51.474;7.228;2023-04-06T08:06:01;7.90;99.90
50969;DHT22;36982;51.474;7.228;2023-04-06T08:08:28;8.00;99.90
50969;DHT22;36982;51.474;7.228;2023-04-06T08:10:54;8.20;99.90
50969;DHT22;36982;51.474;7.228;2023-04-06T08:13:20;8.20;99.90
50969;DHT22;36982;51.474;7.228;2023-04-06T08:15:45;8.20;99.90
50969;DHT22;36982;51.474;7.228;2023-04-06T08:18:11;8.30;68.70
50969;DHT22;36982;51.474;7.228;2023-04-06T08:20:37;8.50;17.90
50969;DHT22;36982;51.474;7.228;2023-04-06T08:23:03;8.60;1.00
50969;DHT22;36982;51.474;7.228;2023-04-06T08:25:29;8.70;1.00
50969;DHT22;36982;51.474;7.228;2023-04-06T08:27:55;8.70;1.00
50969;DHT22;36982;51.474;7.228;2023-04-06T08:30:21;8.80;1.00
50969;DHT22;36982;51.474;7.228;2023-04-06T08:32:46;8.90;1.00
50969;DHT22;36982;51.474;7.228;2023-04-06T08:35:12;9.00;1.00
50969;DHT22;36982;51.474;7.228;2023-04-06T08:37:38;9.00;1.00
50969;DHT22;36982;51.474;7.228;2023-04-06T08:40:04;9.10;99.90
50969;DHT22;36982;51.474;7.228;2023-04-06T08:42:33;9.20;99.90
50969;DHT22;36982;51.474;7.228;2023-04-06T08:44:59;9.40;99.90
50969;DHT22;36982;51.474;7.228;2023-04-06T08:47:25;9.60;99.90
50969;DHT22;36982;51.474;7.228;2023-04-06T08:49:52;9.80;99.90
50969;DHT22;36982;51.474;7.228;2023-04-06T08:52:19;10.10;99.90
50969;DHT22;36982;51.474;7.228;2023-04-06T08:54:45;10.20;99.90
50969;DHT22;36982;51.474;7.228;2023-04-06T08:57:11;10.20;74.10
50969;DHT22;36982;51.474;7.228;2023-04-06T08:59:38;10.20;34.10
50969;DHT22;36982;51.474;7.228;2023-04-06T09:02:04;10.40;31.80
50969;DHT22;36982;51.474;7.228;2023-04-06T09:04:33;10.70;11.20
50969;DHT22;36982;51.474;7.228;2023-04-06T09:06:59;11.00;1.00
50969;DHT22;36982;51.474;7.228;2023-04-06T09:09:25;11.30;1.00
50969;DHT22;36982;51.474;7.228;2023-04-06T09:11:51;11.50;99.90
50969;DHT22;36982;51.474;7.228;2023-04-06T09:14:33;11.70;99.90
50969;DHT22;36982;51.474;7.228;2023-04-06T09:17:00;11.90;99.90
50969;DHT22;36982;51.474;7.228;2023-04-06T09:19:25;12.10;99.90
50969;DHT22;36982;51.474;7.228;2023-04-06T09:22:03;12.20;99.90
50969;DHT22;36982;51.474;7.228;2023-04-06T09:24:42;12.30;99.90
50969;DHT22;36982;51.474;7.228;2023-04-06T09:27:09;12.40;99.90
50969;DHT22;36982;51.474;7.228;2023-04-06T09:29:34;12.40;99.90
50969;DHT22;36982;51.474;7.228;2023-04-06T09:32:06;12.30;99.90
50969;DHT22;36982;51.474;7.228;2023-04-06T09:34:33;12.40;99.90
50969;DHT22;36982;51.474;7.228;2023-04-06T09:36:59;12.70;99.90
50969;DHT22;36982;51.474;7.228;2023-04-06T09:39:25;12.80;99.90
50969;DHT22;36982;51.474;7.228;2023-04-06T09:41:52;13.00;99.90
50969;DHT22;36982;51.474;7.228;2023-04-06T09:44:18;13.00;99.90
50969;DHT22;36982;51.474;7.228;2023-04-06T09:46:46;13.10;99.90
50969;DHT22;36982;51.474;7.228;2023-04-06T09:49:13;13.00;99.30
50969;DHT22;36982;51.474;7.228;2023-04-06T09:51:41;12.30;98.50
50969;DHT22;36982;51.474;7.228;2023-04-06T09:54:09;12.20;99.90
50969;DHT22;36982;51.474;7.228;2023-04-06T09:56:46;12.40;99.00
50969;DHT22;36982;51.474;7.228;2023-04-06T09:59:14;12.20;95.30
50969;DHT22;36982;51.474;7.228;2023-04-06T10:01:42;12.00;99.90
50969;DHT22;36982;51.474;7.228;2023-04-06T10:04:19;12.00;98.40
50969;DHT22;36982;51.474;7.228;2023-04-06T10:06:47;12.10;99.90
50969;DHT22;36982;51.474;7.228;2023-04-06T10:09:18;12.30;99.90
50969;DHT22;36982;51.474;7.228;2023-04-06T10:11:47;12.50;99.90
50969;DHT22;36982;51.474;7.228;2023-04-06T10:14:15;12.70;99.90
50969;DHT22;36982;51.474;7.228;2023-04-06T10:16:42;12.90;99.60
50969;DHT22;36982;51.474;7.228;2023-04-06T10:19:16;13.10;91.20
50969;DHT22;36982;51.474;7.228;2023-04-06T10:21:48;13.20;83.30
50969;DHT22;36982;51.474;7.228;2023-04-06T10:24:15;13.20;84.20
50969;DHT22;36982;51.474;7.228;2023-04-06T10:26:42;13.10;59.30
50969;DHT22;36982;51.474;7.228;2023-04-06T10:29:08;12.90;44.20
50969;DHT22;36982;51.474;7.228;2023-04-06T10:31:40;12.90;46.90
50969;DHT22;36982;51.474;7.228;2023-04-06T10:34:07;12.80;28.10
50969;DHT22;36982;51.474;7.228;2023-04-06T10:36:34;12.90;35.10
50969;DHT22;36982;51.474;7.228;2023-04-06T10:39:04;13.00;39.70
50969;DHT22;36982;51.474;7.228;2023-04-06T10:41:36;13.20;23.70
50969;DHT22;36982;51.474;7.228;2023-04-06T10:44:02;13.50;13.00
50969;DHT22;36982;51.474;7.228;2023-04-06T10:46:30;13.70;2.70
50969;DHT22;36982;51.474;7.228;2023-04-06T10:48:57;13.80;1.00
50969;DHT22;36982;51.474;7.228;2023-04-06T10:51:28;13.90;1.00
50969;DHT22;36982;51.474;7.228;2023-04-06T10:53:55;14.00;1.00
50969;DHT22;36982;51.474;7.228;2023-04-06T10:56:24;14.00;1.00
50969;DHT22;36982;51.474;7.228;2023-04-06T10:58:54;14.00;1.00
50969;DHT22;36982;51.474;7.228;2023-04-06T11:01:24;13.90;1.00
50969;DHT22;36982;51.474;7.228;2023-04-06T11:03:56;14.00;1.00
50969;DHT22;36982;51.474;7.228;2023-04-06T11:06:27;14.20;1.00
50969;DHT22;36982;51.474;7.228;2023-04-06T11:08:55;14.30;1.00
50969;DHT22;36982;51.474;7.228;2023-04-06T11:11:22;14.20;1.00
50969;DHT22;36982;51.474;7.228;2023-04-06T11:16:36;14.20;1.00
50969;DHT22;36982;51.474;7.228;2023-04-06T11:19:03;14.20;1.00
50969;DHT22;36982;51.474;7.228;2023-04-06T11:21:33;14.10;1.00
50969;DHT22;36982;51.474;7.228;2023-04-06T11:24:06;14.00;1.00
50969;DHT22;36982;51.474;7.228;2023-04-06T11:26:36;14.10;1.00
50969;DHT22;36982;51.474;7.228;2023-04-06T11:29:02;14.10;1.00
50969;DHT22;36982;51.474;7.228;2023-04-06T11:31:28;14.20;1.00
50969;DHT22;36982;51.474;7.228;2023-04-06T11:33:57;14.30;1.00
50969;DHT22;36982;51.474;7.228;2023-04-06T11:36:23;14.50;1.00
50969;DHT22;36982;51.474;7.228;2023-04-06T11:38:49;14.70;1.00
50969;DHT22;36982;51.474;7.228;2023-04-06T11:41:15;14.70;1.00
50969;DHT22;36982;51.474;7.228;2023-04-06T11:43:47;14.80;1.00
50969;DHT22;36982;51.474;7.228;2023-04-06T11:46:17;14.90;1.00
50969;DHT22;36982;51.474;7.228;2023-04-06T11:48:45;15.00;1.00
50969;DHT22;36982;51.474;7.228;2023-04-06T11:51:11;15.10;1.00
50969;DHT22;36982;51.474;7.228;2023-04-06T11:53:44;15.10;1.00
50969;DHT22;36982;51.474;7.228;2023-04-06T11:56:11;15.20;1.00
50969;DHT22;36982;51.474;7.228;2023-04-06T11:58:36;15.20;1.00
50969;DHT22;36982;51.474;7.228;2023-04-06T12:01:05;15.10;1.00
50969;DHT22;36982;51.474;7.228;2023-04-06T12:03:31;15.10;1.00
50969;DHT22;36982;51.474;7.228;2023-04-06T12:05:56;14.90;1.00
50969;DHT22;36982;51.474;7.228;2023-04-06T12:08:22;14.90;1.00
50969;DHT22;36982;51.474;7.228;2023-04-06T12:10:50;14.70;1.00
50969;DHT22;36982;51.474;7.228;2023-04-06T12:13:16;14.50;1.00
50969;DHT22;36982;51.474;7.228;2023-04-06T12:15:42;14.60;1.00
50969;DHT22;36982;51.474;7.228;2023-04-06T12:18:07;14.80;1.00
50969;DHT22;36982;51.474;7.228;2023-04-06T12:20:33;14.90;1.00
50969;DHT22;36982;51.474;7.228;2023-04-06T12:22:59;14.80;1.00
50969;DHT22;36982;51.474;7.228;2023-04-06T12:25:24;14.60;1.00
50969;DHT22;36982;51.474;7.228;2023-04-06T12:27:50;14.60;1.00
50969;DHT22;36982;51.474;7.228;2023-04-06T12:30:16;14.60;1.00
50969;DHT22;36982;51.474;7.228;2023-04-06T12:32:42;14.70;1.00
50969;DHT22;36982;51.474;7.228;2023-04-06T12:35:08;14.70;1.00
50969;DHT22;36982;51.474;7.228;2023-04-06T12:37:34;14.80;1.00
50969;DHT22;36982;51.474;7.228;2023-04-06T12:40:00;14.70;1.00
50969;DHT22;36982;51.474;7.228;2023-04-06T12:42:26;14.60;1.00
50969;DHT22;36982;51.474;7.228;2023-04-06T12:44:51;14.60;1.00
50969;DHT22;36982;51.474;7.228;2023-04-06T12:47:17;14.70;1.00
50969;DHT22;36982;51.474;7.228;2023-04-06T12:49:43;14.70;1.00
50969;DHT22;36982;51.474;7.228;2023-04-06T12:52:10;15.00;1.00
50969;DHT22;36982;51.474;7.228;2023-04-06T12:54:36;15.00;1.00
50969;DHT22;36982;51.474;7.228;2023-04-06T12:57:01;14.70;1.00
50969;DHT22;36982;51.474;7.228;2023-04-06T12:59:27;14.70;1.00
50969;DHT22;36982;51.474;7.228;2023-04-06T13:01:59;14.50;1.00
50969;DHT22;36982;51.474;7.228;2023-04-06T13:04:25;14.50;1.00
50969;DHT22;36982;51.474;7.228;2023-04-06T13:06:51;14.60;1.00
50969;DHT22;36982;51.474;7.228;2023-04-06T13:09:17;14.70;1.00
50969;DHT22;36982;51.474;7.228;2023-04-06T13:11:42;14.70;1.00
50969;DHT22;36982;51.474;7.228;2023-04-06T13:14:08;14.40;1.00
50969;DHT22;36982;51.474;7.228;2023-04-06T13:16:34;14.40;1.00
50969;DHT22;36982;51.474;7.228;2023-04-06T13:19:01;14.50;1.00
50969;DHT22;36982;51.474;7.228;2023-04-06T13:21:27;14.50;1.00
50969;DHT22;36982;51.474;7.228;2023-04-06T13:23:53;14.30;1.00
50969;DHT22;36982;51.474;7.228;2023-04-06T13:26:19;14.10;1.00
50969;DHT22;36982;51.474;7.228;2023-04-06T13:28:45;14.30;1.00
50969;DHT22;36982;51.474;7.228;2023-04-06T13:31:11;14.30;1.00
50969;DHT22;36982;51.474;7.228;2023-04-06T13:33:36;14.30;1.00
50969;DHT22;36982;51.474;7.228;2023-04-06T13:36:03;14.10;1.00
50969;DHT22;36982;51.474;7.228;2023-04-06T13:38:29;14.10;1.00
50969;DHT22;36982;51.474;7.228;2023-04-06T13:40:55;14.20;1.00
50969;DHT22;36982;51.474;7.228;2023-04-06T13:43:21;14.00;1.00
50969;DHT22;36982;51.474;7.228;2023-04-06T13:45:54;13.80;1.00
50969;DHT22;36982;51.474;7.228;2023-04-06T13:48:21;13.70;1.00
50969;DHT22;36982;51.474;7.228;2023-04-06T13:50:47;13.50;1.00
50969;DHT22;36982;51.474;7.228;2023-04-06T13:53:13;13.50;1.00
50969;DHT22;36982;51.474;7.228;2023-04-06T13:55:38;13.50;1.00
50969;DHT22;36982;51.474;7.228;2023-04-06T13:58:04;13.50;1.00
50969;DHT22;36982;51.474;7.228;2023-04-06T14:00:30;13.20;1.00
50969;DHT22;36982;51.474;7.228;2023-04-06T14:02:55;13.40;1.00
50969;DHT22;36982;51.474;7.228;2023-04-06T14:05:21;13.40;1.00
50969;DHT22;36982;51.474;7.228;2023-04-06T14:07:49;13.40;1.00
50969;DHT22;36982;51.474;7.228;2023-04-06T14:10:15;13.50;1.00
50969;DHT22;36982;51.474;7.228;2023-04-06T14:12:42;13.50;1.00
50969;DHT22;36982;51.474;7.228;2023-04-06T14:15:09;13.70;1.00
50969;DHT22;36982;51.474;7.228;2023-04-06T14:17:34;13.70;1.00
50969;DHT22;36982;51.474;7.228;2023-04-06T14:20:00;13.80;1.00
50969;DHT22;36982;51.474;7.228;2023-04-06T14:22:26;13.80;1.00
50969;DHT22;36982;51.474;7.228;2023-04-06T14:24:51;13.90;1.00
50969;DHT22;36982;51.474;7.228;2023-04-06T14:27:17;13.80;1.00
50969;DHT22;36982;51.474;7.228;2023-04-06T14:29:42;13.90;1.00
50969;DHT22;36982;51.474;7.228;2023-04-06T14:32:08;13.90;1.00
50969;DHT22;36982;51.474;7.228;2023-04-06T14:34:37;13.80;1.00
50969;DHT22;36982;51.474;7.228;2023-04-06T14:37:02;13.70;1.00
50969;DHT22;36982;51.474;7.228;2023-04-06T14:39:28;13.50;6.20
50969;DHT22;36982;51.474;7.228;2023-04-06T14:41:53;13.50;27.70
50969;DHT22;36982;51.474;7.228;2023-04-06T14:44:20;13.30;47.60
50969;DHT22;36982;51.474;7.228;2023-04-06T14:46:46;13.10;58.50
50969;DHT22;36982;51.474;7.228;2023-04-06T14:49:11;12.90;78.30
50969;DHT22;36982;51.474;7.228;2023-04-06T14:51:37;12.80;92.50
50969;DHT22;36982;51.474;7.228;2023-04-06T14:54:03;12.80;99.90
50969;DHT22;36982;51.474;7.228;2023-04-06T14:56:29;12.80;99.90
50969;DHT22;36982;51.474;7.228;2023-04-06T14:58:58;12.90;99.90
50969;DHT22;36982;51.474;7.228;2023-04-06T15:01:24;12.80;99.90
50969;DHT22;36982;51.474;7.228;2023-04-06T15:03:50;12.70;99.90
50969;DHT22;36982;51.474;7.228;2023-04-06T15:06:17;12.80;99.90
50969;DHT22;36982;51.474;7.228;2023-04-06T15:08:45;12.90;99.90
50969;DHT22;36982;51.474;7.228;2023-04-06T15:11:11;13.00;99.90
50969;DHT22;36982;51.474;7.228;2023-04-06T15:13:38;13.00;99.90
50969;DHT22;36982;51.474;7.228;2023-04-06T15:16:05;12.80;99.90
50969;DHT22;36982;51.474;7.228;2023-04-06T15:18:32;12.80;99.90
50969;DHT22;36982;51.474;7.228;2023-04-06T15:20:58;12.90;99.90
50969;DHT22;36982;51.474;7.228;2023-04-06T15:23:24;12.70;99.90
50969;DHT22;36982;51.474;7.228;2023-04-06T15:25:50;12.60;99.90
50969;DHT22;36982;51.474;7.228;2023-04-06T15:28:16;12.70;99.90
50969;DHT22;36982;51.474;7.228;2023-04-06T15:30:41;12.50;99.90
50969;DHT22;36982;51.474;7.228;2023-04-06T15:33:07;12.40;99.90
50969;DHT22;36982;51.474;7.228;2023-04-06T15:35:34;12.40;99.90
50969;DHT22;36982;51.474;7.228;2023-04-06T15:38:05;12.30;99.90
50969;DHT22;36982;51.474;7.228;2023-04-06T15:40:32;12.40;1.00
50969;DHT22;36982;51.474;7.228;2023-04-06T15:42:57;12.50;1.00